createdAt,value
2024-01-30T00:00:38.251Z,10.97
2024-01-30T00:03:05.189Z,11.00
2024-01-30T00:05:31.865Z,11.03
2024-01-30T00:07:58.633Z,11.02
2024-01-30T00:10:25.438Z,11.03
2024-01-30T00:12:52.277Z,11.05
2024-01-30T00:15:19.488Z,11.03
2024-01-30T00:17:46.187Z,11.00
2024-01-30T00:20:12.936Z,10.99
2024-01-30T00:22:41.024Z,11.02
2024-01-30T00:25:10.809Z,11.04
2024-01-30T00:27:37.469Z,11.05
2024-01-30T00:30:04.653Z,11.09
2024-01-30T00:32:31.315Z,11.16
2024-01-30T00:34:58.207Z,11.19
2024-01-30T00:37:26.271Z,11.23
2024-01-30T00:39:53.067Z,11.27
2024-01-30T00:42:20.964Z,11.29
2024-01-30T00:44:47.582Z,11.25
2024-01-30T00:47:14.273Z,11.28
2024-01-30T00:49:41.340Z,11.28
2024-01-30T00:52:10.212Z,11.31
2024-01-30T00:54:36.983Z,11.36
2024-01-30T00:57:04.065Z,11.38
2024-01-30T00:59:30.719Z,11.37
2024-01-30T01:01:57.485Z,11.37
2024-01-30T01:04:25.526Z,11.36
2024-01-30T01:06:52.318Z,11.35
2024-01-30T01:09:19.984Z,11.36
2024-01-30T01:11:47.406Z,11.34
2024-01-30T01:14:15.007Z,11.33
2024-01-30T01:16:42.661Z,11.37
2024-01-30T01:19:09.829Z,11.37
2024-01-30T01:21:37.693Z,11.38
2024-01-30T01:24:05.936Z,11.34
2024-01-30T01:26:33.544Z,11.35
2024-01-30T01:29:00.900Z,11.31
2024-01-30T01:31:31.186Z,11.30
2024-01-30T01:33:58.879Z,11.19
2024-01-30T01:36:26.379Z,11.26
2024-01-30T01:38:53.747Z,11.26
2024-01-30T01:41:21.353Z,11.23
2024-01-30T01:43:48.790Z,11.20
2024-01-30T01:46:19.218Z,11.18
2024-01-30T01:48:48.669Z,11.15
2024-01-30T01:51:17.465Z,11.08
2024-01-30T01:53:44.342Z,11.05
2024-01-30T01:56:11.357Z,11.08
2024-01-30T01:58:38.613Z,11.08
2024-01-30T02:01:06.138Z,11.08
2024-01-30T02:03:33.186Z,11.05
2024-01-30T02:06:00.026Z,10.98
2024-01-30T02:08:27.719Z,10.99
2024-01-30T02:10:55.944Z,10.97
2024-01-30T02:13:23.311Z,10.99
2024-01-30T02:15:52.834Z,11.00
2024-01-30T02:18:22.718Z,10.95
2024-01-30T02:20:49.677Z,10.96
2024-01-30T02:23:17.433Z,10.91
2024-01-30T02:25:45.926Z,10.89
2024-01-30T02:28:13.720Z,10.90
2024-01-30T02:30:42.555Z,10.91
2024-01-30T02:33:09.248Z,10.88
2024-01-30T02:35:36.388Z,10.90
2024-01-30T02:38:03.140Z,10.90
2024-01-30T02:40:31.369Z,10.90
2024-01-30T02:43:00.632Z,10.87
2024-01-30T02:45:27.280Z,10.86
2024-01-30T02:47:53.971Z,10.83
2024-01-30T02:50:20.862Z,10.83
2024-01-30T02:52:47.621Z,10.83
2024-01-30T02:55:14.422Z,10.78
2024-01-30T02:57:41.249Z,10.76
2024-01-30T03:00:10.566Z,10.77
2024-01-30T03:02:38.008Z,10.75
2024-01-30T03:05:05.892Z,10.73
2024-01-30T03:07:32.861Z,10.70
2024-01-30T03:09:59.529Z,10.67
2024-01-30T03:12:26.317Z,10.65
2024-01-30T03:14:53.669Z,10.61
2024-01-30T03:17:20.252Z,10.62
2024-01-30T03:19:46.946Z,10.62
2024-01-30T03:22:14.102Z,10.59
2024-01-30T03:24:40.784Z,10.56
2024-01-30T03:27:07.477Z,10.54
2024-01-30T03:29:34.291Z,10.51
2024-01-30T03:32:00.897Z,10.51
2024-01-30T03:34:27.624Z,10.48
2024-01-30T03:36:54.746Z,10.48
2024-01-30T03:39:21.371Z,10.47
2024-01-30T03:41:47.967Z,10.47
2024-01-30T03:44:14.585Z,10.45
2024-01-30T03:46:42.483Z,10.44
2024-01-30T03:49:09.272Z,10.44
2024-01-30T03:51:38.596Z,10.40
2024-01-30T03:54:06.601Z,10.41
2024-01-30T03:56:33.472Z,10.39
2024-01-30T03:59:01.810Z,10.37
2024-01-30T04:01:28.566Z,10.36
2024-01-30T04:03:55.383Z,10.36
2024-01-30T04:06:22.083Z,10.35
2024-01-30T04:08:48.663Z,10.32
2024-01-30T04:11:15.279Z,10.32
2024-01-30T04:13:44.438Z,10.31
2024-01-30T04:16:21.573Z,10.29
2024-01-30T04:18:48.246Z,10.26
2024-01-30T04:21:14.910Z,10.25
2024-01-30T04:23:42.597Z,10.26
2024-01-30T04:26:09.387Z,10.22
2024-01-30T04:28:36.124Z,10.23
2024-01-30T04:31:02.876Z,10.22
2024-01-30T04:33:29.591Z,10.21
2024-01-30T04:35:57.672Z,10.23
2024-01-30T04:38:24.701Z,10.23
2024-01-30T04:40:51.362Z,10.18
2024-01-30T04:43:20.381Z,10.08
2024-01-30T04:45:48.648Z,9.97
2024-01-30T04:48:15.393Z,9.81
2024-01-30T04:50:42.004Z,9.69
2024-01-30T04:53:09.096Z,9.58
2024-01-30T04:55:36.981Z,9.38
2024-01-30T04:58:03.817Z,9.29
2024-01-30T05:00:30.545Z,9.13
2024-01-30T05:02:57.375Z,9.16
2024-01-30T05:05:24.130Z,9.05
2024-01-30T05:07:50.763Z,9.06
2024-01-30T05:10:17.491Z,8.99
2024-01-30T05:12:44.245Z,8.91
2024-01-30T05:15:10.978Z,8.93
2024-01-30T05:17:37.698Z,8.79
2024-01-30T05:20:06.138Z,8.84
2024-01-30T05:22:32.937Z,8.84
2024-01-30T05:24:59.629Z,8.72
2024-01-30T05:27:26.270Z,8.61
2024-01-30T05:29:52.936Z,8.61
2024-01-30T05:32:19.642Z,8.61
2024-01-30T05:34:47.683Z,8.59
2024-01-30T05:37:18.227Z,8.46
2024-01-30T05:39:44.967Z,8.47
2024-01-30T05:42:11.576Z,8.48
2024-01-30T05:44:38.241Z,8.37
2024-01-30T05:47:04.913Z,8.40
2024-01-30T05:49:31.560Z,8.38
2024-01-30T05:51:58.216Z,8.31
2024-01-30T05:54:24.886Z,8.38
2024-01-30T05:56:51.720Z,8.38
2024-01-30T05:59:18.336Z,8.29
2024-01-30T06:01:49.004Z,8.37
2024-01-30T06:04:16.329Z,8.33
2024-01-30T06:06:43.230Z,8.20
2024-01-30T06:09:10.890Z,8.21
2024-01-30T06:11:37.585Z,8.11
2024-01-30T06:14:04.391Z,8.02
2024-01-30T06:16:31.196Z,7.86
2024-01-30T06:18:58.042Z,7.92
2024-01-30T06:21:25.149Z,7.76
2024-01-30T06:23:51.811Z,7.84
2024-01-30T06:26:18.600Z,7.74
2024-01-30T06:28:45.616Z,7.79
2024-01-30T06:31:12.279Z,7.73
2024-01-30T06:33:39.087Z,7.65
2024-01-30T06:36:05.921Z,7.61
2024-01-30T06:38:32.483Z,7.58
2024-01-30T06:40:59.236Z,7.43
2024-01-30T06:43:25.971Z,7.50
2024-01-30T06:45:53.137Z,7.42
2024-01-30T06:48:19.939Z,7.44
2024-01-30T06:50:47.325Z,7.45
2024-01-30T06:53:14.007Z,7.40
2024-01-30T06:55:40.753Z,7.40
2024-01-30T06:58:07.536Z,7.35
2024-01-30T07:00:34.203Z,7.33
2024-01-30T07:03:00.881Z,7.25
2024-01-30T07:05:28.766Z,7.32
2024-01-30T07:07:55.582Z,7.28
2024-01-30T07:10:22.880Z,7.31
2024-01-30T07:12:49.600Z,7.20
2024-01-30T07:15:19.243Z,6.98
2024-01-30T07:17:45.912Z,7.06
2024-01-30T07:20:16.332Z,7.08
2024-01-30T07:22:45.296Z,7.06
2024-01-30T07:25:12.234Z,6.99
2024-01-30T07:27:39.033Z,7.02
2024-01-30T07:30:06.792Z,6.91
2024-01-30T07:32:33.538Z,7.01
2024-01-30T07:35:07.657Z,7.02
2024-01-30T07:37:36.375Z,6.82
2024-01-30T07:40:04.332Z,6.91
2024-01-30T07:42:32.554Z,6.97
2024-01-30T07:44:59.251Z,7.00
2024-01-30T07:47:26.072Z,7.00
2024-01-30T07:49:52.975Z,6.85
2024-01-30T07:52:19.887Z,6.90
2024-01-30T07:54:46.738Z,6.72
2024-01-30T07:57:13.420Z,6.77
2024-01-30T07:59:40.117Z,6.82
2024-01-30T08:02:10.153Z,6.85
2024-01-30T08:04:38.610Z,6.82
2024-01-30T08:07:05.409Z,6.87
2024-01-30T08:09:32.258Z,6.89
2024-01-30T08:11:58.968Z,6.83
2024-01-30T08:14:27.040Z,6.88
2024-01-30T08:16:53.658Z,6.83
2024-01-30T08:19:23.770Z,6.79
2024-01-30T08:21:50.694Z,6.78
2024-01-30T08:24:17.427Z,6.85
2024-01-30T08:26:44.271Z,6.81
2024-01-30T08:29:11.682Z,6.82
2024-01-30T08:31:39.776Z,6.79
2024-01-30T08:34:07.148Z,6.79
2024-01-30T08:36:33.888Z,6.76
2024-01-30T08:39:02.960Z,6.79
2024-01-30T08:41:31.832Z,6.75
2024-01-30T08:43:58.609Z,6.82
2024-01-30T08:46:25.424Z,6.85
2024-01-30T08:48:52.317Z,6.78
2024-01-30T08:51:19.097Z,6.86
2024-01-30T08:53:47.123Z,6.88
2024-01-30T08:56:15.176Z,6.85
2024-01-30T08:58:41.824Z,6.79
2024-01-30T09:01:08.548Z,6.86
2024-01-30T09:03:35.341Z,6.83
2024-01-30T09:06:02.164Z,6.78
2024-01-30T09:08:29.023Z,6.61
2024-01-30T09:10:56.233Z,6.67
2024-01-30T09:13:24.407Z,6.69
2024-01-30T09:15:51.077Z,6.77
2024-01-30T09:18:17.853Z,6.81
2024-01-30T09:20:46.581Z,6.78
2024-01-30T09:23:13.187Z,6.68
2024-01-30T09:25:40.119Z,6.69
2024-01-30T09:28:07.208Z,6.73
2024-01-30T09:30:33.885Z,6.69
2024-01-30T09:33:00.665Z,6.72
2024-01-30T09:35:30.451Z,6.76
2024-01-30T09:37:58.252Z,6.72
2024-01-30T09:40:25.652Z,6.60
2024-01-30T09:42:52.632Z,6.68
2024-01-30T09:45:21.305Z,6.64
2024-01-30T09:47:49.356Z,6.62
2024-01-30T09:50:18.706Z,6.62
2024-01-30T09:52:46.634Z,6.66
2024-01-30T09:55:13.714Z,6.60
2024-01-30T09:57:40.649Z,6.66
2024-01-30T10:00:10.019Z,6.67
2024-01-30T10:02:37.308Z,6.68
2024-01-30T10:05:04.503Z,6.68
2024-01-30T10:07:32.578Z,6.68
2024-01-30T10:09:59.373Z,6.67
2024-01-30T10:12:27.617Z,6.64
2024-01-30T10:14:57.734Z,6.75
2024-01-30T10:17:32.705Z,6.76
2024-01-30T10:20:01.560Z,6.79
2024-01-30T10:22:29.083Z,6.74
2024-01-30T10:24:57.696Z,6.69
2024-01-30T10:27:28.182Z,6.71
2024-01-30T10:29:54.906Z,6.71
2024-01-30T10:32:23.139Z,6.76
2024-01-30T10:34:50.208Z,6.80
2024-01-30T10:37:20.261Z,6.86
2024-01-30T10:39:47.638Z,6.87
2024-01-30T10:42:16.876Z,6.88
2024-01-30T10:47:28.776Z,6.84
2024-01-30T10:49:56.743Z,6.88
2024-01-30T10:52:27.090Z,6.89
2024-01-30T10:54:55.201Z,6.82
2024-01-30T10:57:26.665Z,6.91
2024-01-30T10:59:58.043Z,6.98
2024-01-30T11:02:26.413Z,7.00
2024-01-30T11:04:59.281Z,6.96
2024-01-30T11:07:29.691Z,7.01
2024-01-30T11:10:05.221Z,7.03
2024-01-30T11:12:34.680Z,6.99
2024-01-30T11:15:06.607Z,6.98
2024-01-30T11:22:57.232Z,7.07
2024-01-30T11:25:25.104Z,7.07
2024-01-30T11:27:54.652Z,7.07
2024-01-30T11:35:48.803Z,7.24
2024-01-30T11:38:17.117Z,7.28
2024-01-30T11:40:48.515Z,7.36
2024-01-30T11:43:15.303Z,7.45
2024-01-30T11:45:42.062Z,7.54
2024-01-30T11:48:11.940Z,7.55
2024-01-30T11:50:39.899Z,7.47
2024-01-30T11:53:08.205Z,7.51
2024-01-30T11:55:36.895Z,7.49
2024-01-30T11:58:04.088Z,7.46
2024-01-30T12:00:32.473Z,7.45
2024-01-30T12:03:01.793Z,7.44
2024-01-30T12:05:29.492Z,7.44
2024-01-30T12:07:57.021Z,7.36
2024-01-30T12:10:23.759Z,7.39
2024-01-30T12:12:52.901Z,7.43
2024-01-30T12:15:20.174Z,7.51
2024-01-30T12:17:46.856Z,7.55
2024-01-30T12:20:16.123Z,7.58
2024-01-30T12:22:46.419Z,7.56
2024-01-30T12:27:53.132Z,7.57
2024-01-30T12:30:23.214Z,7.61
2024-01-30T12:32:52.811Z,7.61
2024-01-30T12:35:22.055Z,7.63
2024-01-30T12:37:49.919Z,7.63
2024-01-30T12:40:17.175Z,7.67
2024-01-30T12:42:47.149Z,7.61
2024-01-30T12:45:15.845Z,7.70
2024-01-30T12:47:43.228Z,7.76
2024-01-30T12:50:13.641Z,7.71
2024-01-30T12:52:41.637Z,7.61
2024-01-30T12:55:08.328Z,7.63
2024-01-30T12:57:36.506Z,7.60
2024-01-30T13:00:04.250Z,7.61
2024-01-30T13:02:36.123Z,7.60
2024-01-30T13:05:04.027Z,7.62
2024-01-30T13:07:30.752Z,7.65
2024-01-30T13:10:05.051Z,7.71
2024-01-30T13:12:33.786Z,7.72
2024-01-30T13:15:02.639Z,7.77
2024-01-30T13:17:29.796Z,7.79
2024-01-30T13:19:59.820Z,7.77
2024-01-30T13:22:29.518Z,7.77
2024-01-30T13:24:56.258Z,7.78
2024-01-30T13:27:23.077Z,7.79
2024-01-30T13:29:49.753Z,7.78
2024-01-30T13:32:16.838Z,7.77
2024-01-30T13:34:44.939Z,7.76
2024-01-30T13:37:11.919Z,7.76
2024-01-30T13:39:40.362Z,7.72
2024-01-30T13:42:07.357Z,7.64
2024-01-30T13:44:35.354Z,7.63
2024-01-30T13:47:03.648Z,7.61
2024-01-30T13:49:30.395Z,7.60
2024-01-30T13:52:00.238Z,7.66
2024-01-30T13:54:27.361Z,7.63
2024-01-30T13:56:54.142Z,7.65
2024-01-30T13:59:24.873Z,7.62
2024-01-30T14:01:52.368Z,7.60
2024-01-30T14:04:19.380Z,7.64
2024-01-30T14:06:53.247Z,7.69
2024-01-30T14:09:23.911Z,7.68
2024-01-30T14:11:50.730Z,7.69
2024-01-30T14:14:17.408Z,7.72
2024-01-30T14:16:44.331Z,7.66
2024-01-30T14:19:11.296Z,7.67
2024-01-30T14:21:38.480Z,7.70
2024-01-30T14:24:05.497Z,7.66
2024-01-30T14:26:32.219Z,7.61
2024-01-30T14:28:58.936Z,7.58
2024-01-30T14:31:25.826Z,7.55
2024-01-30T14:33:53.853Z,7.48
2024-01-30T14:36:21.691Z,7.50
2024-01-30T14:38:48.381Z,7.53
2024-01-30T14:41:15.749Z,7.51
2024-01-30T14:43:42.456Z,7.51
2024-01-30T14:46:09.189Z,7.57
2024-01-30T14:48:35.873Z,7.59
2024-01-30T14:51:02.590Z,7.57
2024-01-30T14:53:29.274Z,7.52
2024-01-30T14:55:57.358Z,7.53
2024-01-30T14:58:24.183Z,7.52
2024-01-30T15:00:52.457Z,7.54
2024-01-30T15:03:19.288Z,7.55
2024-01-30T15:05:47.038Z,7.56
2024-01-30T15:08:13.731Z,7.55
2024-01-30T15:10:40.592Z,7.57
2024-01-30T15:13:08.825Z,7.58
2024-01-30T15:15:35.558Z,7.54
2024-01-30T15:18:02.430Z,7.55
2024-01-30T15:20:29.197Z,7.54
2024-01-30T15:22:55.952Z,7.57
2024-01-30T15:25:24.055Z,7.59
2024-01-30T15:27:52.153Z,7.60
2024-01-30T15:30:20.806Z,7.61
2024-01-30T15:32:48.057Z,7.57
2024-01-30T15:35:14.903Z,7.60
2024-01-30T15:37:41.565Z,7.62
2024-01-30T15:40:09.751Z,7.60
2024-01-30T15:42:37.952Z,7.62
2024-01-30T15:45:08.421Z,7.54
2024-01-30T15:47:35.573Z,7.47
2024-01-30T15:50:04.150Z,7.49
2024-01-30T15:52:31.209Z,7.41
2024-01-30T15:54:58.033Z,7.42
2024-01-30T15:57:26.894Z,7.41
2024-01-30T15:59:54.418Z,7.39
2024-01-30T16:02:22.758Z,7.40
2024-01-30T16:04:51.093Z,7.43
2024-01-30T16:07:17.994Z,7.42
2024-01-30T16:09:44.795Z,7.36
2024-01-30T16:12:11.498Z,7.30
2024-01-30T16:14:38.431Z,7.23
2024-01-30T16:17:05.285Z,7.12
2024-01-30T16:19:33.770Z,7.04
2024-01-30T16:22:00.619Z,6.97
2024-01-30T16:24:28.771Z,6.89
2024-01-30T16:26:58.094Z,6.82
2024-01-30T16:29:24.853Z,6.74
2024-01-30T16:31:51.538Z,6.66
2024-01-30T16:34:18.263Z,6.60
2024-01-30T16:36:46.386Z,6.54
2024-01-30T16:39:13.331Z,6.46
2024-01-30T16:41:42.130Z,6.40
2024-01-30T16:44:08.769Z,6.33
2024-01-30T16:46:37.357Z,6.27
2024-01-30T16:49:04.531Z,6.22
2024-01-30T16:51:32.663Z,6.16
2024-01-30T16:54:01.228Z,6.09
2024-01-30T16:56:27.886Z,6.04
2024-01-30T16:58:55.794Z,5.97
2024-01-30T17:01:23.964Z,5.91
2024-01-30T17:03:50.756Z,5.86
2024-01-30T17:06:19.520Z,5.81
2024-01-30T17:08:46.671Z,5.76
2024-01-30T17:11:13.599Z,5.72
2024-01-30T17:13:41.621Z,5.69
2024-01-30T17:16:08.476Z,5.63
2024-01-30T17:18:35.207Z,5.60
2024-01-30T17:21:01.816Z,5.54
2024-01-30T17:23:28.451Z,5.49
2024-01-30T17:25:55.548Z,5.46
2024-01-30T17:28:22.400Z,5.42
2024-01-30T17:30:49.317Z,5.39
2024-01-30T17:33:17.431Z,5.35
2024-01-30T17:35:44.276Z,5.31
2024-01-30T17:38:10.890Z,5.27
2024-01-30T17:40:37.685Z,5.24
2024-01-30T17:43:04.706Z,5.21
2024-01-30T17:45:31.328Z,5.16
2024-01-30T17:47:58.048Z,5.11
2024-01-30T17:50:24.777Z,5.06
2024-01-30T17:52:53.943Z,5.01
2024-01-30T17:55:20.801Z,4.96
2024-01-30T17:57:47.485Z,4.88
2024-01-30T18:00:17.532Z,4.82
2024-01-30T18:02:46.009Z,4.75
2024-01-30T18:05:13.754Z,4.69
2024-01-30T18:07:41.178Z,4.63
2024-01-30T18:10:09.661Z,4.59
2024-01-30T18:12:37.556Z,4.53
2024-01-30T18:15:04.956Z,4.49
2024-01-30T18:17:31.596Z,4.43
2024-01-30T18:19:58.400Z,4.40
2024-01-30T18:22:25.255Z,4.37
2024-01-30T18:24:51.894Z,4.33
2024-01-30T18:27:18.619Z,4.32
2024-01-30T18:29:45.373Z,4.31
2024-01-30T18:32:12.053Z,4.29
2024-01-30T18:34:38.740Z,4.28
2024-01-30T18:37:05.771Z,4.25
2024-01-30T18:39:32.594Z,4.23
2024-01-30T18:41:59.429Z,4.20
2024-01-30T18:44:26.014Z,4.19
2024-01-30T18:46:52.807Z,4.16
2024-01-30T18:49:21.339Z,4.15
2024-01-30T18:51:54.306Z,4.13
2024-01-30T18:54:24.001Z,4.07
2024-01-30T18:56:52.216Z,4.02
2024-01-30T18:59:19.433Z,4.01
2024-01-30T19:01:47.052Z,3.97
2024-01-30T19:04:14.398Z,3.95
2024-01-30T19:06:41.212Z,3.89
2024-01-30T19:09:09.197Z,3.85
2024-01-30T19:11:36.446Z,3.80
2024-01-30T19:14:03.338Z,3.77
2024-01-30T19:16:30.135Z,3.76
2024-01-30T19:18:57.339Z,3.75
2024-01-30T19:21:26.657Z,3.74
2024-01-30T19:23:54.989Z,3.73
2024-01-30T19:26:21.634Z,3.71
2024-01-30T19:28:50.495Z,3.69
2024-01-30T19:31:19.169Z,3.70
2024-01-30T19:33:46.698Z,3.67
2024-01-30T19:36:14.093Z,3.65
2024-01-30T19:38:40.835Z,3.63
2024-01-30T19:41:08.705Z,3.60
2024-01-30T19:43:36.781Z,3.58
2024-01-30T19:46:03.555Z,3.57
2024-01-30T19:48:30.451Z,3.56
2024-01-30T19:50:58.399Z,3.53
2024-01-30T19:53:25.110Z,3.51
2024-01-30T19:55:51.848Z,3.49
2024-01-30T19:58:18.763Z,3.46
2024-01-30T20:00:47.781Z,3.44
2024-01-30T20:03:14.582Z,3.41
2024-01-30T20:05:41.492Z,3.36
2024-01-30T20:08:08.373Z,3.32
2024-01-30T20:10:35.125Z,3.29
2024-01-30T20:13:03.460Z,3.24
2024-01-30T20:15:32.010Z,3.20
2024-01-30T20:17:58.643Z,3.18
2024-01-30T20:20:25.664Z,3.15
2024-01-30T20:22:52.896Z,3.14
2024-01-30T20:25:20.510Z,3.12
2024-01-30T20:27:48.458Z,3.11
2024-01-30T20:30:15.440Z,3.08
2024-01-30T20:32:42.450Z,3.06
2024-01-30T20:35:11.894Z,3.02
2024-01-30T20:37:41.431Z,2.97
2024-01-30T20:40:08.831Z,2.94
2024-01-30T20:42:36.799Z,2.90
2024-01-30T20:45:05.087Z,2.85
2024-01-30T20:47:31.934Z,2.82
2024-01-30T20:49:58.760Z,2.80
2024-01-30T20:52:25.568Z,2.79
2024-01-30T20:54:52.754Z,2.76
2024-01-30T20:57:19.481Z,2.77
2024-01-30T20:59:47.392Z,2.76
2024-01-30T21:02:14.144Z,2.76
2024-01-30T21:04:42.246Z,2.75
2024-01-30T21:07:08.963Z,2.75
2024-01-30T21:09:35.616Z,2.74
2024-01-30T21:12:02.339Z,2.71
2024-01-30T21:14:29.346Z,2.69
2024-01-30T21:16:56.006Z,2.66
2024-01-30T21:19:24.098Z,2.66
2024-01-30T21:21:50.859Z,2.63
2024-01-30T21:24:17.485Z,2.62
2024-01-30T21:26:44.337Z,2.61
2024-01-30T21:29:10.946Z,2.61
2024-01-30T21:31:37.659Z,2.58
2024-01-30T21:34:04.658Z,2.55
2024-01-30T21:36:32.728Z,2.52
2024-01-30T21:38:59.360Z,2.49
2024-01-30T21:41:28.569Z,2.47
2024-01-30T21:43:55.211Z,2.44
2024-01-30T21:46:26.832Z,2.42
2024-01-30T21:48:53.869Z,2.38
2024-01-30T21:51:21.216Z,2.35
2024-01-30T21:53:48.145Z,2.32
2024-01-30T21:56:14.899Z,2.30
2024-01-30T21:58:41.612Z,2.28
2024-01-30T22:01:08.501Z,2.28
2024-01-30T22:03:35.469Z,2.28
2024-01-30T22:06:02.228Z,2.29
2024-01-30T22:08:28.852Z,2.28
2024-01-30T22:10:56.929Z,2.28
2024-01-30T22:13:25.577Z,2.27
2024-01-30T22:15:52.380Z,2.26
2024-01-30T22:18:19.156Z,2.24
2024-01-30T22:20:45.936Z,2.23
2024-01-30T22:23:13.200Z,2.23
2024-01-30T22:25:40.128Z,2.22
2024-01-30T22:28:07.203Z,2.18
2024-01-30T22:30:34.010Z,2.11
2024-01-30T22:33:00.881Z,2.05
2024-01-30T22:35:27.679Z,2.03
2024-01-30T22:37:54.654Z,2.01
2024-01-30T22:40:21.304Z,1.97
2024-01-30T22:42:49.236Z,1.89
2024-01-30T22:45:15.923Z,1.86
2024-01-30T22:47:42.611Z,1.80
2024-01-30T22:50:09.639Z,1.77
2024-01-30T22:52:36.532Z,1.73
2024-01-30T22:55:03.404Z,1.70
2024-01-30T22:57:33.162Z,1.70
2024-01-30T23:00:02.333Z,1.71
2024-01-30T23:02:29.098Z,1.73
2024-01-30T23:04:55.812Z,1.74
2024-01-30T23:07:23.923Z,1.77
2024-01-30T23:09:50.524Z,1.77
2024-01-30T23:12:17.136Z,1.77
2024-01-30T23:14:45.873Z,1.75
2024-01-30T23:17:12.573Z,1.70
2024-01-30T23:19:39.166Z,1.67
2024-01-30T23:22:07.150Z,1.64
2024-01-30T23:24:33.901Z,1.61
2024-01-30T23:27:01.763Z,1.57
2024-01-30T23:29:28.405Z,1.51
2024-01-30T23:31:56.360Z,1.47
2024-01-30T23:34:23.203Z,1.46
2024-01-30T23:36:52.229Z,1.48
2024-01-30T23:39:20.123Z,1.48
2024-01-30T23:41:46.820Z,1.50
2024-01-30T23:44:13.622Z,1.52
2024-01-30T23:46:40.530Z,1.51
2024-01-30T23:49:07.300Z,1.50
2024-01-30T23:51:33.962Z,1.50
2024-01-30T23:54:01.804Z,1.51
2024-01-30T23:56:28.447Z,1.53
2024-01-30T23:58:56.391Z,1.56
